Terminal Aerodrome Forecast
Issued by NWS

Home | Current Version | Previous Version | Text Only | Print | Product List | Glossary On
Versions: 1 2 3 4 5 6 7 8 9 10 11 12 13 14 15 16
000
FTUS45 KFGZ 231739
TAFGCN
TAF
KGCN 231739Z 2318/2418 05006KT P6SM VCTS SCT080CB BKN110
      TEMPO 2318/2322 VRB15G25KT 5SM TSRA BKN060CB
     FM232200 VRB05KT P6SM VCTS SCT050 OVC070CB
      TEMPO 2322/2402 4SM TSRA BKN050CB
     FM240200 VRB05KT P6SM VCSH BKN040 OVC060 PROB30 2403/2408 5SM
      SHRA BKN035=

USA.gov is the U.S. government's official web portal to all federal, state and local government web resources and services.